createdAt,value
2018-08-22T00:02:27.834Z,91.20
2018-08-22T00:04:56.026Z,91.30
2018-08-22T00:07:24.209Z,91.40
2018-08-22T00:09:52.397Z,91.60
2018-08-22T00:12:20.582Z,91.70
2018-08-22T00:14:48.777Z,91.80
2018-08-22T00:17:16.953Z,91.70
2018-08-22T00:19:45.150Z,91.80
2018-08-22T00:22:13.337Z,91.90
2018-08-22T00:24:41.521Z,92.00
2018-08-22T00:27:09.702Z,91.90
2018-08-22T00:29:37.976Z,92.10
2018-08-22T00:32:06.254Z,91.90
2018-08-22T00:34:34.365Z,92.00
2018-08-22T00:37:02.567Z,92.00
2018-08-22T00:39:30.741Z,91.90
2018-08-22T00:41:58.934Z,92.10
2018-08-22T00:44:27.133Z,92.20
2018-08-22T00:46:55.315Z,92.40
2018-08-22T00:49:23.485Z,92.30
2018-08-22T00:51:51.681Z,92.40
2018-08-22T00:54:19.858Z,92.30
2018-08-22T00:56:48.053Z,92.40
2018-08-22T00:59:16.242Z,92.50
2018-08-22T01:01:44.425Z,92.70
2018-08-22T01:04:12.609Z,92.70
2018-08-22T01:06:40.805Z,92.70
2018-08-22T01:09:09.390Z,92.80
2018-08-22T01:11:37.973Z,92.90
2018-08-22T01:14:06.277Z,93.00
2018-08-22T01:16:34.469Z,93.00
2018-08-22T01:19:02.649Z,93.00
2018-08-22T01:21:30.845Z,93.10
2018-08-22T01:23:59.018Z,93.10
2018-08-22T01:26:27.234Z,93.20
2018-08-22T01:28:55.398Z,93.20
2018-08-22T01:31:23.589Z,93.50
2018-08-22T01:33:51.910Z,93.20
2018-08-22T01:36:20.066Z,93.20
2018-08-22T01:38:48.246Z,93.30
2018-08-22T01:41:16.437Z,93.30
2018-08-22T01:43:44.659Z,93.50
2018-08-22T01:46:12.813Z,93.50
2018-08-22T01:48:40.998Z,93.60
2018-08-22T01:51:09.181Z,93.50
2018-08-22T01:53:37.367Z,93.60
2018-08-22T01:56:05.890Z,93.70
2018-08-22T01:58:34.037Z,93.70
2018-08-22T02:01:02.237Z,93.80
2018-08-22T02:03:30.413Z,93.90
2018-08-22T02:05:58.622Z,94.10
2018-08-22T02:08:26.794Z,94.20
2018-08-22T02:10:54.993Z,94.20
2018-08-22T02:13:23.163Z,94.40
2018-08-22T02:15:51.349Z,94.40
2018-08-22T02:18:19.549Z,94.50
2018-08-22T02:20:47.729Z,94.40
2018-08-22T02:23:15.926Z,94.40
2018-08-22T02:25:44.102Z,94.50
2018-08-22T02:28:12.298Z,94.50
2018-08-22T02:30:40.474Z,94.60
2018-08-22T02:33:08.664Z,94.70
2018-08-22T02:35:36.855Z,94.80
2018-08-22T02:38:05.561Z,94.80
2018-08-22T02:40:33.749Z,94.90
2018-08-22T02:43:02.014Z,94.90
2018-08-22T02:45:30.204Z,94.90
2018-08-22T02:47:58.402Z,95.00
2018-08-22T02:50:26.577Z,95.20
2018-08-22T02:52:54.785Z,95.20
2018-08-22T02:55:22.954Z,95.10
2018-08-22T02:57:51.150Z,95.20
2018-08-22T03:00:19.335Z,95.30
2018-08-22T03:02:47.533Z,95.20
2018-08-22T03:05:15.712Z,95.20
2018-08-22T03:07:43.901Z,95.30
2018-08-22T03:10:12.070Z,95.50
2018-08-22T03:12:40.274Z,95.60
2018-08-22T03:15:08.449Z,95.70
2018-08-22T03:17:36.686Z,95.70
2018-08-22T03:20:04.810Z,95.70
2018-08-22T03:22:32.997Z,95.80
2018-08-22T03:25:01.175Z,95.90
2018-08-22T03:27:29.262Z,95.90
2018-08-22T03:29:57.338Z,96.00
2018-08-22T03:32:25.446Z,96.00
2018-08-22T03:34:53.627Z,95.90
2018-08-22T03:37:21.815Z,95.90
2018-08-22T03:39:49.991Z,96.10
2018-08-22T03:42:18.081Z,96.00
2018-08-22T03:44:46.262Z,96.10
2018-08-22T03:47:14.355Z,96.10
2018-08-22T03:49:42.530Z,96.10
2018-08-22T03:52:10.638Z,96.20
2018-08-22T03:54:38.817Z,96.20
2018-08-22T03:57:06.994Z,96.20
2018-08-22T03:59:35.074Z,96.20
2018-08-22T04:02:03.209Z,96.30
2018-08-22T04:04:31.346Z,96.30
2018-08-22T04:06:59.438Z,96.20
2018-08-22T04:09:27.634Z,96.30
2018-08-22T04:11:55.807Z,96.30
2018-08-22T04:14:23.897Z,96.40
2018-08-22T04:16:52.114Z,96.50
2018-08-22T04:19:20.342Z,96.60
2018-08-22T04:21:48.473Z,96.60
2018-08-22T04:24:16.694Z,96.60
2018-08-22T04:26:44.801Z,96.70
2018-08-22T04:29:12.943Z,96.80
2018-08-22T04:31:41.114Z,97.00
2018-08-22T04:34:09.311Z,96.90
2018-08-22T04:36:37.509Z,97.10
2018-08-22T04:39:06.827Z,97.10
2018-08-22T04:41:35.119Z,97.00
2018-08-22T04:44:03.298Z,97.00
2018-08-22T04:46:31.493Z,97.10
2018-08-22T04:48:59.671Z,97.10
2018-08-22T04:51:27.842Z,97.10
2018-08-22T04:53:56.058Z,97.10
2018-08-22T04:56:24.218Z,97.20
2018-08-22T04:58:52.406Z,97.10
2018-08-22T05:01:20.590Z,97.10
2018-08-22T05:03:48.786Z,97.10
2018-08-22T05:06:16.970Z,96.90
2018-08-22T05:08:45.075Z,96.60
2018-08-22T05:11:13.525Z,96.20
2018-08-22T05:13:41.967Z,95.90
2018-08-22T05:16:10.130Z,95.70
2018-08-22T05:18:38.333Z,95.60
2018-08-22T05:21:06.522Z,95.50
2018-08-22T05:23:34.686Z,95.50
2018-08-22T05:26:02.865Z,95.40
2018-08-22T05:28:31.065Z,95.40
2018-08-22T05:30:59.249Z,95.30
2018-08-22T05:33:27.550Z,95.40
2018-08-22T05:35:55.729Z,95.40
2018-08-22T05:38:23.912Z,95.40
2018-08-22T05:40:52.098Z,95.40
2018-08-22T05:43:20.294Z,95.30
2018-08-22T05:45:48.465Z,95.30
2018-08-22T05:48:16.665Z,95.30
2018-08-22T05:50:44.850Z,95.30
2018-08-22T05:53:13.038Z,95.30
2018-08-22T05:55:41.137Z,95.30
2018-08-22T05:58:09.309Z,95.30
2018-08-22T06:00:37.489Z,95.30
2018-08-22T06:03:05.702Z,95.40
2018-08-22T06:05:33.871Z,95.30
2018-08-22T06:08:02.045Z,95.40
2018-08-22T06:10:30.246Z,95.30
2018-08-22T06:12:58.427Z,95.40
2018-08-22T06:15:26.639Z,95.40
2018-08-22T06:17:54.772Z,95.20
2018-08-22T06:20:22.869Z,95.30
2018-08-22T06:22:51.047Z,95.30
2018-08-22T06:25:19.126Z,95.30
2018-08-22T06:27:47.250Z,95.20
2018-08-22T06:30:15.418Z,95.30
2018-08-22T06:32:43.591Z,95.50
2018-08-22T06:35:11.778Z,95.20
2018-08-22T06:37:39.972Z,95.10
2018-08-22T06:40:08.161Z,95.10
2018-08-22T06:42:36.375Z,95.20
2018-08-22T06:45:05.642Z,95.20
2018-08-22T06:47:33.725Z,95.40
2018-08-22T06:50:01.840Z,95.30
2018-08-22T06:52:30.445Z,95.50
2018-08-22T06:54:58.638Z,95.20
2018-08-22T06:57:26.809Z,95.10
2018-08-22T06:59:54.977Z,95.30
2018-08-22T07:02:23.158Z,95.20
2018-08-22T07:04:51.238Z,95.10
2018-08-22T07:07:19.332Z,95.20
2018-08-22T07:09:47.448Z,95.00
2018-08-22T07:12:15.606Z,94.90
2018-08-22T07:14:43.690Z,95.20
2018-08-22T07:17:11.897Z,94.80
2018-08-22T07:19:40.008Z,95.00
2018-08-22T07:22:08.162Z,95.00
2018-08-22T07:24:36.357Z,94.70
2018-08-22T07:40:06.665Z,94.40
2018-08-22T07:42:34.838Z,95.00
2018-08-22T07:45:03.035Z,94.90
2018-08-22T07:47:31.193Z,94.90
2018-08-22T07:49:59.403Z,94.90
2018-08-22T07:52:27.587Z,94.30
2018-08-22T07:54:55.784Z,93.50
2018-08-22T07:57:24.170Z,93.30
2018-08-22T07:59:53.178Z,93.80
2018-08-22T08:02:21.349Z,93.00
2018-08-22T08:04:49.465Z,93.60
2018-08-22T08:07:17.703Z,94.00
2018-08-22T08:09:45.813Z,93.50
2018-08-22T08:12:13.998Z,93.80
2018-08-22T08:14:42.214Z,93.80
2018-08-22T08:17:10.381Z,93.70
2018-08-22T08:19:38.569Z,93.00
2018-08-22T08:22:06.753Z,93.40
2018-08-22T08:24:34.938Z,92.00
2018-08-22T08:27:03.123Z,92.60
2018-08-22T08:29:31.319Z,92.10
2018-08-22T08:31:59.498Z,92.90
2018-08-22T08:34:27.682Z,92.50
2018-08-22T08:36:55.862Z,92.50
2018-08-22T08:39:23.963Z,93.00
2018-08-22T08:41:52.170Z,93.10
2018-08-22T08:44:20.365Z,93.00
2018-08-22T08:46:48.520Z,93.00
2018-08-22T08:49:16.723Z,92.40
2018-08-22T08:51:56.350Z,91.70
2018-08-22T08:54:24.529Z,92.50
2018-08-22T08:56:52.753Z,92.30
2018-08-22T08:59:21.127Z,92.20
2018-08-22T09:01:49.257Z,91.00
2018-08-22T09:04:17.384Z,90.50
2018-08-22T09:06:45.631Z,91.20
2018-08-22T09:09:13.771Z,90.30
2018-08-22T09:11:47.354Z,87.20
2018-08-22T09:14:15.463Z,87.30
2018-08-22T09:16:43.685Z,89.20
2018-08-22T09:19:11.841Z,89.90
2018-08-22T09:21:40.035Z,90.10
2018-08-22T09:24:08.287Z,91.20
2018-08-22T09:26:36.410Z,86.60
2018-08-22T09:29:04.660Z,87.60
2018-08-22T09:31:32.775Z,90.00
2018-08-22T09:34:00.974Z,87.70
2018-08-22T09:36:29.146Z,83.40
2018-08-22T09:38:57.333Z,82.10
2018-08-22T09:41:25.523Z,82.30
2018-08-22T09:43:53.670Z,88.90
2018-08-22T09:46:21.903Z,87.20
2018-08-22T09:48:50.087Z,85.30
2018-08-22T09:51:18.276Z,83.50
2018-08-22T09:53:46.430Z,82.50
2018-08-22T09:56:14.683Z,79.00
2018-08-22T09:58:43.430Z,79.90
2018-08-22T10:01:17.110Z,78.80
2018-08-22T10:03:55.282Z,74.80
2018-08-22T10:06:32.824Z,77.20
2018-08-22T10:09:02.025Z,73.90
2018-08-22T10:11:30.159Z,73.40
2018-08-22T10:13:58.790Z,71.70
2018-08-22T10:16:28.003Z,71.60
2018-08-22T10:18:56.594Z,70.50
2018-08-22T10:21:25.810Z,77.10
2018-08-22T10:23:55.326Z,73.30
2018-08-22T10:26:23.615Z,72.40
2018-08-22T10:28:52.174Z,68.30
2018-08-22T10:31:20.401Z,64.60
2018-08-22T10:33:48.589Z,63.80
2018-08-22T10:36:16.769Z,62.40
2018-08-22T10:38:44.950Z,61.90
2018-08-22T10:41:13.062Z,61.90
2018-08-22T10:43:41.222Z,61.50
2018-08-22T10:46:09.826Z,58.60
2018-08-22T10:48:38.035Z,58.00
2018-08-22T10:51:06.621Z,57.80
2018-08-22T10:53:34.786Z,57.60
2018-08-22T10:56:02.973Z,55.30
2018-08-22T10:58:31.375Z,54.60
2018-08-22T11:00:59.878Z,54.00
2018-08-22T11:03:28.253Z,54.70
2018-08-22T11:05:56.370Z,49.90
2018-08-22T11:08:24.518Z,50.40
2018-08-22T11:10:52.818Z,50.00
2018-08-22T11:13:21.014Z,48.90
2018-08-22T11:15:49.251Z,49.70
2018-08-22T11:18:17.359Z,47.40
2018-08-22T11:20:45.875Z,45.20
2018-08-22T11:23:26.666Z,47.20
2018-08-22T11:26:06.170Z,47.60
2018-08-22T11:28:46.285Z,46.10
2018-08-22T11:31:26.771Z,47.10
2018-08-22T11:34:06.411Z,47.80
2018-08-22T11:36:34.401Z,46.30
2018-08-22T11:39:03.163Z,44.20
2018-08-22T11:41:31.372Z,43.20
2018-08-22T11:43:59.541Z,44.50
2018-08-22T11:46:27.728Z,44.30
2018-08-22T11:48:55.913Z,43.80
2018-08-22T11:51:24.090Z,44.40
2018-08-22T11:53:52.223Z,45.90
2018-08-22T11:56:20.398Z,43.10
2018-08-22T11:58:48.570Z,45.80
2018-08-22T12:01:16.733Z,44.50
2018-08-22T12:03:44.830Z,42.10
2018-08-22T12:06:13.024Z,46.30
2018-08-22T12:08:41.201Z,44.20
2018-08-22T12:11:09.374Z,43.70
2018-08-22T12:13:37.480Z,41.30
2018-08-22T12:16:05.682Z,42.40
2018-08-22T12:18:33.855Z,40.10
2018-08-22T12:21:02.031Z,41.90
2018-08-22T12:23:30.208Z,38.90
2018-08-22T12:25:58.322Z,40.00
2018-08-22T12:28:26.486Z,39.30
2018-08-22T12:30:54.569Z,38.10
2018-08-22T12:33:22.686Z,38.00
2018-08-22T12:35:50.866Z,37.70
2018-08-22T12:38:19.038Z,37.40
2018-08-22T12:40:47.211Z,37.10
2018-08-22T12:43:15.302Z,36.40
2018-08-22T12:45:43.693Z,36.40
2018-08-22T12:48:11.782Z,36.40
2018-08-22T12:50:39.966Z,38.00
2018-08-22T12:53:08.063Z,37.50
2018-08-22T12:55:36.238Z,38.50
2018-08-22T12:58:04.318Z,37.00
2018-08-22T13:00:32.402Z,36.10
2018-08-22T13:03:00.729Z,35.80
2018-08-22T13:05:28.877Z,36.40
2018-08-22T13:07:56.978Z,36.00
2018-08-22T13:10:25.145Z,36.70
2018-08-22T13:12:53.250Z,35.60
2018-08-22T13:15:21.354Z,35.20
2018-08-22T13:17:49.520Z,34.70
2018-08-22T13:20:17.701Z,35.40
2018-08-22T13:22:45.894Z,37.20
2018-08-22T13:25:14.073Z,35.30
2018-08-22T13:27:42.270Z,36.40
2018-08-22T13:30:10.483Z,37.70
2018-08-22T13:32:38.649Z,34.40
2018-08-22T13:35:06.939Z,34.20
2018-08-22T13:37:35.122Z,34.30
2018-08-22T13:40:03.211Z,37.50
2018-08-22T13:42:31.398Z,35.10
2018-08-22T13:44:59.563Z,35.00
2018-08-22T13:47:27.647Z,35.50
2018-08-22T13:49:55.870Z,37.50
2018-08-22T13:52:24.058Z,35.90
2018-08-22T13:54:52.215Z,34.00
2018-08-22T13:57:20.429Z,36.40
2018-08-22T13:59:48.602Z,35.00
2018-08-22T14:02:16.794Z,35.20
2018-08-22T14:04:45.193Z,36.40
2018-08-22T14:07:13.386Z,35.40
2018-08-22T14:09:41.541Z,36.10
2018-08-22T14:12:09.713Z,36.30
2018-08-22T14:14:37.825Z,34.70
2018-08-22T14:17:05.989Z,34.10
2018-08-22T14:19:34.110Z,33.20
2018-08-22T14:22:02.271Z,33.10
2018-08-22T14:24:30.595Z,33.20
2018-08-22T14:26:58.895Z,34.20
2018-08-22T14:29:27.041Z,32.60
2018-08-22T14:31:55.214Z,34.50
2018-08-22T14:34:23.311Z,33.70
2018-08-22T14:36:51.730Z,33.90
2018-08-22T14:39:19.938Z,33.60
2018-08-22T14:41:47.979Z,33.30
2018-08-22T14:44:16.058Z,35.10
2018-08-22T14:46:44.294Z,35.40
2018-08-22T14:49:12.462Z,34.40
2018-08-22T14:51:40.631Z,33.50
2018-08-22T14:54:08.809Z,32.90
2018-08-22T14:56:37.019Z,34.90
2018-08-22T14:59:05.494Z,32.00
2018-08-22T15:01:33.718Z,32.70
2018-08-22T15:04:01.866Z,34.20
2018-08-22T15:06:30.034Z,32.50
2018-08-22T15:09:04.256Z,33.80
2018-08-22T15:11:34.030Z,34.40
2018-08-22T15:14:02.317Z,34.00
2018-08-22T15:16:30.912Z,34.00
2018-08-22T15:18:59.085Z,33.60
2018-08-22T15:21:27.249Z,34.40
2018-08-22T15:23:55.435Z,35.40
2018-08-22T15:26:24.083Z,34.90
2018-08-22T15:28:52.250Z,34.50
2018-08-22T15:32:45.137Z,34.00
2018-08-22T15:35:13.301Z,35.70
2018-08-22T15:37:41.470Z,34.00
2018-08-22T15:40:09.575Z,36.20
2018-08-22T15:42:37.775Z,34.70
2018-08-22T15:45:06.103Z,36.30
2018-08-22T15:47:34.240Z,33.70
2018-08-22T15:50:02.330Z,35.60
2018-08-22T15:52:30.510Z,35.30
2018-08-22T15:55:07.424Z,34.60
2018-08-22T15:57:48.910Z,37.10
2018-08-22T16:00:43.442Z,34.60
2018-08-22T16:03:11.826Z,35.80
2018-08-22T16:05:41.135Z,34.90
2018-08-22T16:08:09.742Z,35.10
2018-08-22T16:10:37.995Z,36.30
2018-08-22T16:13:12.671Z,37.00
2018-08-22T16:15:40.807Z,36.60
2018-08-22T16:18:09.482Z,35.80
2018-08-22T16:20:45.539Z,39.20
2018-08-22T16:23:13.899Z,36.80
2018-08-22T16:25:44.461Z,37.30
2018-08-22T16:28:12.633Z,37.50
2018-08-22T16:30:40.865Z,38.50
2018-08-22T16:33:09.515Z,39.70
2018-08-22T16:35:37.702Z,38.10
2018-08-22T16:38:09.325Z,37.90
2018-08-22T16:40:42.643Z,38.30
2018-08-22T16:43:10.741Z,38.40
2018-08-22T16:45:45.341Z,40.10
2018-08-22T16:48:17.460Z,41.90
2018-08-22T16:50:45.678Z,42.00
2018-08-22T16:53:13.838Z,42.10
2018-08-22T16:55:42.033Z,43.00
2018-08-22T16:58:10.133Z,43.90
2018-08-22T17:00:43.207Z,45.40
2018-08-22T17:03:11.433Z,41.80
2018-08-22T17:05:39.606Z,42.90
2018-08-22T17:08:07.834Z,44.30
2018-08-22T17:10:50.960Z,45.20
2018-08-22T17:13:28.122Z,44.80
2018-08-22T17:15:56.934Z,46.50
2018-08-22T17:18:25.316Z,47.10
2018-08-22T17:20:53.490Z,45.30
2018-08-22T17:23:21.730Z,45.80
2018-08-22T17:25:49.762Z,46.60
2018-08-22T17:28:23.462Z,46.60
2018-08-22T17:30:51.578Z,48.40
2018-08-22T17:33:19.738Z,48.10
2018-08-22T17:35:47.977Z,48.10
2018-08-22T17:38:16.106Z,49.30
2018-08-22T17:40:44.326Z,49.40
2018-08-22T17:43:12.481Z,50.20
2018-08-22T17:45:40.902Z,50.50
2018-08-22T17:48:09.086Z,51.20
2018-08-22T17:50:37.234Z,51.80
2018-08-22T17:53:06.802Z,52.30
2018-08-22T17:55:35.032Z,52.10
2018-08-22T17:58:03.287Z,52.80
2018-08-22T18:00:33.622Z,52.20
2018-08-22T18:03:01.799Z,52.50
2018-08-22T18:05:30.193Z,53.40
2018-08-22T18:08:01.503Z,53.80
2018-08-22T18:10:30.708Z,54.20
2018-08-22T18:13:03.038Z,54.80
2018-08-22T18:15:31.194Z,54.90
2018-08-22T18:17:59.413Z,55.40
2018-08-22T18:20:27.918Z,55.90
2018-08-22T18:22:56.390Z,55.50
2018-08-22T18:25:24.573Z,56.10
2018-08-22T18:27:59.962Z,56.30
2018-08-22T18:30:28.126Z,56.70
2018-08-22T18:32:56.321Z,58.00
2018-08-22T18:35:24.509Z,59.60
2018-08-22T18:37:52.696Z,59.00
2018-08-22T18:40:25.005Z,58.40
2018-08-22T18:42:56.667Z,58.50
2018-08-22T18:45:25.443Z,59.20
2018-08-22T18:47:53.642Z,60.20
2018-08-22T18:50:21.927Z,60.50
2018-08-22T18:52:53.707Z,60.70
2018-08-22T18:55:24.963Z,61.10
2018-08-22T18:57:53.461Z,61.80
2018-08-22T19:00:21.781Z,62.50
2018-08-22T19:02:52.517Z,63.00
2018-08-22T19:05:22.925Z,63.60
2018-08-22T19:07:57.209Z,64.00
2018-08-22T19:10:27.702Z,64.50
2018-08-22T19:13:30.018Z,64.40
2018-08-22T19:16:00.525Z,65.00
2018-08-22T19:18:28.701Z,66.40
2018-08-22T19:20:59.553Z,67.20
2018-08-22T19:23:27.978Z,67.60
2018-08-22T19:25:56.727Z,67.60
2018-08-22T19:28:24.802Z,67.60
2018-08-22T19:30:52.902Z,68.20
2018-08-22T19:33:22.173Z,68.70
2018-08-22T19:35:50.389Z,69.20
2018-08-22T19:38:20.358Z,69.70
2018-08-22T19:40:48.518Z,70.10
2018-08-22T19:43:16.719Z,70.80
2018-08-22T19:45:44.882Z,71.20
2018-08-22T19:48:13.203Z,71.20
2018-08-22T19:50:41.436Z,71.50
2018-08-22T19:53:09.573Z,71.80
2018-08-22T19:55:38.189Z,71.60
2018-08-22T19:58:06.669Z,73.00
2018-08-22T20:00:34.824Z,73.20
2018-08-22T20:03:02.902Z,73.10
2018-08-22T20:05:50.186Z,75.00
2018-08-22T20:08:20.982Z,75.30
2018-08-22T20:10:49.085Z,74.40
2018-08-22T20:13:17.254Z,75.20
2018-08-22T20:15:45.373Z,75.60
2018-08-22T20:18:13.560Z,75.90
2018-08-22T20:20:41.753Z,76.40
2018-08-22T20:23:09.965Z,76.60
2018-08-22T20:25:38.114Z,77.50
2018-08-22T20:28:06.293Z,79.30
2018-08-22T20:30:34.474Z,80.20
2018-08-22T20:33:07.570Z,81.30
2018-08-22T20:35:36.688Z,81.50
2018-08-22T20:38:08.473Z,82.10
2018-08-22T20:40:36.751Z,82.50
2018-08-22T20:43:04.853Z,82.90
2018-08-22T20:45:33.886Z,82.80
2018-08-22T20:48:09.014Z,83.60
2018-08-22T20:50:39.268Z,83.90
2018-08-22T20:53:09.682Z,83.20
2018-08-22T20:55:37.909Z,82.90
2018-08-22T20:58:06.061Z,84.70
2018-08-22T21:00:35.277Z,85.10
2018-08-22T21:03:03.469Z,84.40
2018-08-22T21:05:31.605Z,85.10
2018-08-22T21:07:59.697Z,85.30
2018-08-22T21:10:27.878Z,85.80
2018-08-22T21:12:55.986Z,85.30
2018-08-22T21:15:24.156Z,85.00
2018-08-22T21:17:52.351Z,85.60
2018-08-22T21:20:23.634Z,85.50
2018-08-22T21:22:52.451Z,85.00
2018-08-22T21:25:20.599Z,84.20
2018-08-22T21:27:49.382Z,83.90
2018-08-22T21:30:17.732Z,84.10
2018-08-22T21:32:46.830Z,84.00
2018-08-22T21:35:25.005Z,83.30
2018-08-22T21:37:54.266Z,83.10
2018-08-22T21:40:22.433Z,84.10
2018-08-22T21:42:50.602Z,84.70
2018-08-22T21:45:18.786Z,85.10
2018-08-22T21:47:46.982Z,84.80
2018-08-22T21:50:15.174Z,85.10
2018-08-22T21:52:56.793Z,85.10
2018-08-22T21:55:30.425Z,84.90
2018-08-22T21:57:59.014Z,85.20
2018-08-22T22:00:28.021Z,85.60
2018-08-22T22:02:56.233Z,85.90
2018-08-22T22:05:35.852Z,85.60
2018-08-22T22:08:04.014Z,86.00
2018-08-22T22:10:32.187Z,86.00
2018-08-22T22:13:00.281Z,86.40
2018-08-22T22:15:33.927Z,86.10
2018-08-22T22:18:02.123Z,86.00
2018-08-22T22:20:30.294Z,85.60
2018-08-22T22:22:58.599Z,85.40
2018-08-22T22:25:26.773Z,85.40
2018-08-22T22:27:54.966Z,85.30
2018-08-22T22:30:23.143Z,85.30
2018-08-22T22:32:51.337Z,85.40
2018-08-22T22:35:25.074Z,85.40
2018-08-22T22:37:57.510Z,85.30
2018-08-22T22:40:28.810Z,85.40
2018-08-22T22:42:57.158Z,85.30
2018-08-22T22:45:25.272Z,85.60
2018-08-22T22:47:53.454Z,86.20
2018-08-22T22:50:21.981Z,86.50
2018-08-22T22:52:50.166Z,86.60
2018-08-22T22:55:18.270Z,86.80
2018-08-22T22:57:46.438Z,86.60
2018-08-22T23:00:16.341Z,87.70
2018-08-22T23:02:45.371Z,87.40
2018-08-22T23:05:13.533Z,88.30
2018-08-22T23:07:42.853Z,88.70
2018-08-22T23:10:13.090Z,88.70
2018-08-22T23:12:45.986Z,88.80
2018-08-22T23:15:19.095Z,89.00
2018-08-22T23:17:49.078Z,89.40
2018-08-22T23:20:24.982Z,89.90
2018-08-22T23:22:53.155Z,90.20
2018-08-22T23:25:21.335Z,90.50
2018-08-22T23:27:49.519Z,90.60
2018-08-22T23:30:26.319Z,90.70
2018-08-22T23:32:54.486Z,90.90
2018-08-22T23:35:24.876Z,91.30
2018-08-22T23:37:54.165Z,91.70
2018-08-22T23:40:23.494Z,91.80
2018-08-22T23:42:51.878Z,91.80
2018-08-22T23:45:20.039Z,91.80
2018-08-22T23:47:48.217Z,92.00
2018-08-22T23:50:16.310Z,92.10
2018-08-22T23:52:49.126Z,92.20
2018-08-22T23:55:18.394Z,92.40
2018-08-22T23:57:47.598Z,92.40
